Airfield :
LOGIN :

Register | Disclaimer

   EN    FR    IT 

 










Legend :    VFR   Marginal VFR   IFR   Intensive IFR   Very Intensive IFR
Visi :
Ceiling :
>= 8 km
>= 3000ft
5 to 8 km
1000 to 3000 ft
1500m to 5 km
500 to 1000 ft
800 to 1500m
200 to 500 ft
< 800m
< 200 ft
Symbols :   Thunderstorms  Fog  Heavy snow  Heavy precipitations  Wind > 20 kt
SIGMETs :     Misc.  Thunderstorms  Icing  Turbulence  Mountain Waves  Volcanic Ashes







- Airport Elevation : 137 ft


LIPS - Istrana AFB Treviso

CURRENT METAR :
  • 142155Z 02004KT 9999 -RA SCT030 21/18 Q1014 RMK BKN BKN120 VIS MIN 9999 WIND THR26 36005KT WIND THR08 02004KT BLU

EXPIRED METARs :
  • 142055Z 06005KT 9999 -RA FEW025TCU SCT030 BKN090 21/19 Q1014 RMK OVC VIS MIN 9999 WIND THR26 03006KT WIND THR08 06006KT BLU
  • 141955Z 06011KT 9999 -RA FEW025CB SCT030 BKN100 21/19 Q1014 RETS RMK BKN VIS MIN 9999 WIND THR26 03012KT WIND THR08 06012KT BLU

TAF TAF LIPS
Valid from the 14 at 21:00 until the 15 at 06:00 UTC


142000Z 1421/1506 01008KT 9999 SCT015 SCT060
TEMPO 1421/1422 5000 TSRA FEW010CB BKN040
No reported NOTAMs for that airfield.
1 SIGMET reported for the Milano FIR (LIMM) :
 
Severe turbulence
LIMM SIGMET 9 VALID 142200/150200 LIIP
LIMM MILANO FIR SEV TURB FCST WI N4621 E00821 - N4342 E00750 - N4310 E00941 - N4336 E01017 - N4342 E01107 - N4336 E01207 - N4636 E01300 - N4705 E01216 - N4650 E01034 - N4621 E00821 FL240/380 MOV E NC=



MET'MAP, your aeronautical weather chart ! - Copyright ORBIFLY December 2007 - Disclaimer

ORBIFLY MET'MAP TEAM :

Programming & Development : Alexandra Zaïnal
Concept & Development : Baudouin d'Aumeries
Co-Development & Prog : Marc-Olivier Méhu
Technical & hardware support : Manuel Goepfert

Contact : metmap@orbifly.com




SOURCES & CREDITS :

   NOAA